sensor_id;sensor_type;location;lat;lon;timestamp;P1;durP1;ratioP1;P2;durP2;ratioP2
23113;SDS011;11726;50.122;8.832;2022-08-18T00:01:20;7.57;;;6.78;;
23113;SDS011;11726;50.122;8.832;2022-08-18T00:03:50;8.30;;;6.70;;
23113;SDS011;11726;50.122;8.832;2022-08-18T00:06:24;6.80;;;6.20;;
23113;SDS011;11726;50.122;8.832;2022-08-18T00:08:54;9.13;;;7.03;;
23113;SDS011;11726;50.122;8.832;2022-08-18T00:11:21;11.13;;;7.50;;
23113;SDS011;11726;50.122;8.832;2022-08-18T00:13:48;7.80;;;6.82;;
23113;SDS011;11726;50.122;8.832;2022-08-18T00:16:15;9.77;;;6.80;;
23113;SDS011;11726;50.122;8.832;2022-08-18T00:18:42;7.50;;;6.63;;
23113;SDS011;11726;50.122;8.832;2022-08-18T00:21:08;9.65;;;6.63;;
23113;SDS011;11726;50.122;8.832;2022-08-18T00:23:35;9.65;;;6.78;;
23113;SDS011;11726;50.122;8.832;2022-08-18T00:26:04;8.32;;;6.18;;
23113;SDS011;11726;50.122;8.832;2022-08-18T00:28:31;10.30;;;6.35;;
23113;SDS011;11726;50.122;8.832;2022-08-18T00:30:58;8.48;;;6.80;;
23113;SDS011;11726;50.122;8.832;2022-08-18T00:33:24;9.15;;;6.72;;
23113;SDS011;11726;50.122;8.832;2022-08-18T00:35:54;7.35;;;6.57;;
23113;SDS011;11726;50.122;8.832;2022-08-18T00:38:42;7.88;;;6.55;;
23113;SDS011;11726;50.122;8.832;2022-08-18T00:41:11;11.80;;;6.68;;
23113;SDS011;11726;50.122;8.832;2022-08-18T00:43:42;17.83;;;7.18;;
23113;SDS011;11726;50.122;8.832;2022-08-18T00:46:13;21.83;;;7.63;;
23113;SDS011;11726;50.122;8.832;2022-08-18T00:48:55;11.55;;;7.30;;
23113;SDS011;11726;50.122;8.832;2022-08-18T00:54:08;9.77;;;7.47;;
23113;SDS011;11726;50.122;8.832;2022-08-18T00:56:45;9.48;;;7.55;;
23113;SDS011;11726;50.122;8.832;2022-08-18T00:59:22;13.93;;;7.85;;
23113;SDS011;11726;50.122;8.832;2022-08-18T01:02:01;9.18;;;7.68;;
23113;SDS011;11726;50.122;8.832;2022-08-18T01:07:06;8.95;;;8.10;;
23113;SDS011;11726;50.122;8.832;2022-08-18T01:09:47;8.13;;;7.35;;
23113;SDS011;11726;50.122;8.832;2022-08-18T01:12:16;10.30;;;8.30;;
23113;SDS011;11726;50.122;8.832;2022-08-18T01:15:04;8.55;;;7.32;;
23113;SDS011;11726;50.122;8.832;2022-08-18T01:17:31;9.55;;;8.07;;
23113;SDS011;11726;50.122;8.832;2022-08-18T01:20:18;11.43;;;8.40;;
23113;SDS011;11726;50.122;8.832;2022-08-18T01:23:19;13.15;;;8.48;;
23113;SDS011;11726;50.122;8.832;2022-08-18T01:25:48;10.82;;;7.45;;
23113;SDS011;11726;50.122;8.832;2022-08-18T01:28:26;14.75;;;8.05;;
23113;SDS011;11726;50.122;8.832;2022-08-18T01:30:55;9.57;;;8.48;;
23113;SDS011;11726;50.122;8.832;2022-08-18T01:33:27;11.88;;;7.88;;
23113;SDS011;11726;50.122;8.832;2022-08-18T01:35:59;12.93;;;7.73;;
23113;SDS011;11726;50.122;8.832;2022-08-18T01:38:29;11.07;;;8.32;;
23113;SDS011;11726;50.122;8.832;2022-08-18T01:40:59;12.88;;;8.70;;
23113;SDS011;11726;50.122;8.832;2022-08-18T01:43:48;12.90;;;8.43;;
23113;SDS011;11726;50.122;8.832;2022-08-18T01:46:19;13.75;;;8.95;;
23113;SDS011;11726;50.122;8.832;2022-08-18T01:48:47;9.23;;;8.32;;
23113;SDS011;11726;50.122;8.832;2022-08-18T01:51:15;9.52;;;8.55;;
23113;SDS011;11726;50.122;8.832;2022-08-18T01:53:44;12.13;;;9.38;;
23113;SDS011;11726;50.122;8.832;2022-08-18T01:56:11;10.05;;;8.95;;
23113;SDS011;11726;50.122;8.832;2022-08-18T01:58:40;12.35;;;9.13;;
23113;SDS011;11726;50.122;8.832;2022-08-18T02:01:07;9.80;;;8.85;;
23113;SDS011;11726;50.122;8.832;2022-08-18T02:03:38;14.48;;;8.75;;
23113;SDS011;11726;50.122;8.832;2022-08-18T02:06:08;13.35;;;9.32;;
23113;SDS011;11726;50.122;8.832;2022-08-18T02:08:39;9.90;;;8.65;;
23113;SDS011;11726;50.122;8.832;2022-08-18T02:11:11;10.30;;;9.15;;
23113;SDS011;11726;50.122;8.832;2022-08-18T02:13:38;17.77;;;9.23;;
23113;SDS011;11726;50.122;8.832;2022-08-18T02:16:06;11.68;;;9.88;;
23113;SDS011;11726;50.122;8.832;2022-08-18T02:18:34;10.73;;;9.68;;
23113;SDS011;11726;50.122;8.832;2022-08-18T02:21:15;10.90;;;9.80;;
23113;SDS011;11726;50.122;8.832;2022-08-18T02:23:45;10.88;;;9.82;;
23113;SDS011;11726;50.122;8.832;2022-08-18T02:26:19;11.30;;;10.23;;
23113;SDS011;11726;50.122;8.832;2022-08-18T02:28:46;14.82;;;10.38;;
23113;SDS011;11726;50.122;8.832;2022-08-18T02:31:15;17.52;;;10.10;;
23113;SDS011;11726;50.122;8.832;2022-08-18T02:33:45;22.45;;;10.13;;
23113;SDS011;11726;50.122;8.832;2022-08-18T02:36:18;13.27;;;10.57;;
23113;SDS011;11726;50.122;8.832;2022-08-18T02:38:45;11.80;;;10.48;;
23113;SDS011;11726;50.122;8.832;2022-08-18T02:41:25;12.00;;;9.82;;
23113;SDS011;11726;50.122;8.832;2022-08-18T02:43:55;11.90;;;10.70;;
23113;SDS011;11726;50.122;8.832;2022-08-18T02:46:22;11.18;;;9.77;;
23113;SDS011;11726;50.122;8.832;2022-08-18T02:48:55;11.50;;;10.40;;
23113;SDS011;11726;50.122;8.832;2022-08-18T02:51:22;12.73;;;10.65;;
23113;SDS011;11726;50.122;8.832;2022-08-18T02:53:51;10.88;;;9.88;;
23113;SDS011;11726;50.122;8.832;2022-08-18T02:56:22;11.60;;;10.40;;
23113;SDS011;11726;50.122;8.832;2022-08-18T02:59:08;10.98;;;9.60;;
23113;SDS011;11726;50.122;8.832;2022-08-18T03:01:38;12.35;;;9.65;;
23113;SDS011;11726;50.122;8.832;2022-08-18T03:04:08;11.48;;;9.77;;
23113;SDS011;11726;50.122;8.832;2022-08-18T03:06:36;11.95;;;10.27;;
23113;SDS011;11726;50.122;8.832;2022-08-18T03:09:05;11.32;;;10.23;;
23113;SDS011;11726;50.122;8.832;2022-08-18T03:11:32;14.30;;;10.27;;
23113;SDS011;11726;50.122;8.832;2022-08-18T03:14:00;11.90;;;9.57;;
23113;SDS011;11726;50.122;8.832;2022-08-18T03:16:27;11.85;;;10.48;;
23113;SDS011;11726;50.122;8.832;2022-08-18T03:18:58;9.98;;;8.98;;
23113;SDS011;11726;50.122;8.832;2022-08-18T03:21:27;10.95;;;9.85;;
23113;SDS011;11726;50.122;8.832;2022-08-18T03:23:55;20.65;;;10.50;;
23113;SDS011;11726;50.122;8.832;2022-08-18T03:26:27;12.20;;;9.45;;
23113;SDS011;11726;50.122;8.832;2022-08-18T03:28:55;11.30;;;9.57;;
23113;SDS011;11726;50.122;8.832;2022-08-18T03:31:24;11.25;;;10.00;;
23113;SDS011;11726;50.122;8.832;2022-08-18T03:33:53;12.30;;;10.13;;
23113;SDS011;11726;50.122;8.832;2022-08-18T03:36:29;11.75;;;10.02;;
23113;SDS011;11726;50.122;8.832;2022-08-18T03:39:00;11.80;;;9.93;;
23113;SDS011;11726;50.122;8.832;2022-08-18T03:41:32;10.80;;;9.80;;
23113;SDS011;11726;50.122;8.832;2022-08-18T03:44:21;10.80;;;9.80;;
23113;SDS011;11726;50.122;8.832;2022-08-18T03:46:49;11.68;;;10.45;;
23113;SDS011;11726;50.122;8.832;2022-08-18T03:49:16;12.93;;;10.27;;
23113;SDS011;11726;50.122;8.832;2022-08-18T03:51:44;11.25;;;10.20;;
23113;SDS011;11726;50.122;8.832;2022-08-18T03:54:13;13.95;;;10.45;;
23113;SDS011;11726;50.122;8.832;2022-08-18T03:56:42;11.80;;;10.60;;
23113;SDS011;11726;50.122;8.832;2022-08-18T03:59:11;15.48;;;10.30;;
23113;SDS011;11726;50.122;8.832;2022-08-18T04:01:42;11.90;;;9.95;;
23113;SDS011;11726;50.122;8.832;2022-08-18T04:04:11;11.48;;;10.23;;
23113;SDS011;11726;50.122;8.832;2022-08-18T04:06:42;11.23;;;10.07;;
23113;SDS011;11726;50.122;8.832;2022-08-18T04:09:12;11.23;;;10.02;;
23113;SDS011;11726;50.122;8.832;2022-08-18T04:11:40;10.98;;;9.57;;
23113;SDS011;11726;50.122;8.832;2022-08-18T04:14:10;17.63;;;10.98;;
23113;SDS011;11726;50.122;8.832;2022-08-18T04:16:37;13.23;;;10.23;;
23113;SDS011;11726;50.122;8.832;2022-08-18T04:19:04;12.02;;;10.02;;
23113;SDS011;11726;50.122;8.832;2022-08-18T04:21:33;12.48;;;10.40;;
23113;SDS011;11726;50.122;8.832;2022-08-18T04:24:03;17.08;;;10.32;;
23113;SDS011;11726;50.122;8.832;2022-08-18T04:26:31;11.13;;;10.02;;
23113;SDS011;11726;50.122;8.832;2022-08-18T04:29:00;11.85;;;10.75;;
23113;SDS011;11726;50.122;8.832;2022-08-18T04:31:27;13.23;;;11.07;;
23113;SDS011;11726;50.122;8.832;2022-08-18T04:33:56;14.15;;;10.75;;
23113;SDS011;11726;50.122;8.832;2022-08-18T04:36:25;14.38;;;10.75;;
23113;SDS011;11726;50.122;8.832;2022-08-18T04:38:52;16.50;;;12.00;;
23113;SDS011;11726;50.122;8.832;2022-08-18T04:41:22;12.50;;;11.20;;
23113;SDS011;11726;50.122;8.832;2022-08-18T04:43:53;12.75;;;11.20;;
23113;SDS011;11726;50.122;8.832;2022-08-18T04:46:23;15.45;;;11.27;;
23113;SDS011;11726;50.122;8.832;2022-08-18T04:48:51;16.80;;;11.60;;
23113;SDS011;11726;50.122;8.832;2022-08-18T04:51:19;20.85;;;11.55;;
23113;SDS011;11726;50.122;8.832;2022-08-18T04:54:06;16.13;;;11.57;;
23113;SDS011;11726;50.122;8.832;2022-08-18T04:56:35;16.95;;;11.15;;
23113;SDS011;11726;50.122;8.832;2022-08-18T04:59:05;17.15;;;10.98;;
23113;SDS011;11726;50.122;8.832;2022-08-18T05:01:43;17.58;;;10.95;;
23113;SDS011;11726;50.122;8.832;2022-08-18T05:04:11;13.40;;;11.13;;
23113;SDS011;11726;50.122;8.832;2022-08-18T05:06:40;13.05;;;10.35;;
23113;SDS011;11726;50.122;8.832;2022-08-18T05:09:08;12.18;;;10.82;;
23113;SDS011;11726;50.122;8.832;2022-08-18T05:11:42;12.35;;;10.32;;
23113;SDS011;11726;50.122;8.832;2022-08-18T05:14:15;12.75;;;11.07;;
23113;SDS011;11726;50.122;8.832;2022-08-18T05:16:42;16.70;;;12.15;;
23113;SDS011;11726;50.122;8.832;2022-08-18T05:19:15;14.05;;;11.15;;
23113;SDS011;11726;50.122;8.832;2022-08-18T05:21:52;13.18;;;10.30;;
23113;SDS011;11726;50.122;8.832;2022-08-18T05:24:28;16.92;;;10.90;;
23113;SDS011;11726;50.122;8.832;2022-08-18T05:27:03;13.52;;;10.40;;
23113;SDS011;11726;50.122;8.832;2022-08-18T05:29:32;16.30;;;10.88;;
23113;SDS011;11726;50.122;8.832;2022-08-18T05:32:07;11.43;;;10.25;;
23113;SDS011;11726;50.122;8.832;2022-08-18T05:34:34;13.00;;;10.07;;
23113;SDS011;11726;50.122;8.832;2022-08-18T05:37:13;14.40;;;10.55;;
23113;SDS011;11726;50.122;8.832;2022-08-18T05:40:12;11.10;;;9.80;;
23113;SDS011;11726;50.122;8.832;2022-08-18T05:42:39;13.85;;;9.68;;
23113;SDS011;11726;50.122;8.832;2022-08-18T05:45:12;20.48;;;10.07;;
23113;SDS011;11726;50.122;8.832;2022-08-18T05:47:41;20.70;;;10.07;;
23113;SDS011;11726;50.122;8.832;2022-08-18T05:50:27;10.98;;;9.48;;
23113;SDS011;11726;50.122;8.832;2022-08-18T05:52:58;13.90;;;9.35;;
23113;SDS011;11726;50.122;8.832;2022-08-18T05:55:41;14.30;;;9.90;;
23113;SDS011;11726;50.122;8.832;2022-08-18T05:58:35;12.85;;;9.57;;
23113;SDS011;11726;50.122;8.832;2022-08-18T06:01:06;12.00;;;9.43;;
23113;SDS011;11726;50.122;8.832;2022-08-18T06:03:42;48.58;;;12.82;;
23113;SDS011;11726;50.122;8.832;2022-08-18T06:08:56;90.20;;;14.32;;
23113;SDS011;11726;50.122;8.832;2022-08-18T06:11:23;42.40;;;11.20;;
23113;SDS011;11726;50.122;8.832;2022-08-18T06:13:50;44.00;;;11.57;;
23113;SDS011;11726;50.122;8.832;2022-08-18T06:20:27;18.75;;;10.20;;
23113;SDS011;11726;50.122;8.832;2022-08-18T06:22:58;23.50;;;11.85;;
23113;SDS011;11726;50.122;8.832;2022-08-18T06:28:35;14.43;;;12.47;;
23113;SDS011;11726;50.122;8.832;2022-08-18T06:31:18;15.65;;;12.15;;
23113;SDS011;11726;50.122;8.832;2022-08-18T06:37:09;13.25;;;11.40;;
23113;SDS011;11726;50.122;8.832;2022-08-18T06:39:26;13.45;;;11.10;;
23113;SDS011;11726;50.122;8.832;2022-08-18T06:42:10;14.15;;;12.38;;
23113;SDS011;11726;50.122;8.832;2022-08-18T06:44:41;13.48;;;11.15;;
23113;SDS011;11726;50.122;8.832;2022-08-18T06:47:18;13.95;;;11.85;;
23113;SDS011;11726;50.122;8.832;2022-08-18T06:49:49;15.05;;;12.63;;
23113;SDS011;11726;50.122;8.832;2022-08-18T06:55:00;15.23;;;13.23;;
23113;SDS011;11726;50.122;8.832;2022-08-18T07:00:29;16.92;;;12.40;;
23113;SDS011;11726;50.122;8.832;2022-08-18T07:03:14;18.92;;;12.52;;
23113;SDS011;11726;50.122;8.832;2022-08-18T07:05:59;15.80;;;13.05;;
23113;SDS011;11726;50.122;8.832;2022-08-18T07:08:34;17.40;;;13.20;;
23113;SDS011;11726;50.122;8.832;2022-08-18T07:13:48;15.70;;;12.55;;
23113;SDS011;11726;50.122;8.832;2022-08-18T07:16:37;18.73;;;14.02;;
23113;SDS011;11726;50.122;8.832;2022-08-18T07:19:26;17.42;;;14.10;;
23113;SDS011;11726;50.122;8.832;2022-08-18T07:24:31;14.90;;;13.40;;
23113;SDS011;11726;50.122;8.832;2022-08-18T07:27:04;20.35;;;14.77;;
23113;SDS011;11726;50.122;8.832;2022-08-18T07:30:04;15.90;;;12.80;;
23113;SDS011;11726;50.122;8.832;2022-08-18T07:32:33;15.70;;;14.07;;
23113;SDS011;11726;50.122;8.832;2022-08-18T07:35:05;15.45;;;13.27;;
23113;SDS011;11726;50.122;8.832;2022-08-18T07:37:35;15.95;;;14.30;;
23113;SDS011;11726;50.122;8.832;2022-08-18T07:40:28;16.13;;;14.57;;
23113;SDS011;11726;50.122;8.832;2022-08-18T07:43:38;17.38;;;14.93;;
23113;SDS011;11726;50.122;8.832;2022-08-18T07:46:15;16.80;;;15.10;;
23113;SDS011;11726;50.122;8.832;2022-08-18T07:48:48;16.88;;;15.10;;
23113;SDS011;11726;50.122;8.832;2022-08-18T07:51:29;15.55;;;13.93;;
23113;SDS011;11726;50.122;8.832;2022-08-18T07:54:56;17.25;;;13.80;;
23113;SDS011;11726;50.122;8.832;2022-08-18T08:11:59;19.73;;;14.88;;
23113;SDS011;11726;50.122;8.832;2022-08-18T08:14:46;22.33;;;14.40;;
23113;SDS011;11726;50.122;8.832;2022-08-18T08:17:20;16.00;;;12.48;;
23113;SDS011;11726;50.122;8.832;2022-08-18T08:20:11;18.42;;;12.68;;
23113;SDS011;11726;50.122;8.832;2022-08-18T08:25:25;18.63;;;11.85;;
23113;SDS011;11726;50.122;8.832;2022-08-18T08:33:50;13.27;;;11.98;;
23113;SDS011;11726;50.122;8.832;2022-08-18T08:36:28;15.45;;;12.20;;
23113;SDS011;11726;50.122;8.832;2022-08-18T08:39:00;13.38;;;10.55;;
23113;SDS011;11726;50.122;8.832;2022-08-18T08:44:44;12.52;;;10.57;;
23113;SDS011;11726;50.122;8.832;2022-08-18T08:47:31;13.18;;;11.02;;
23113;SDS011;11726;50.122;8.832;2022-08-18T08:50:08;13.50;;;10.45;;
23113;SDS011;11726;50.122;8.832;2022-08-18T08:55:23;13.23;;;11.85;;
23113;SDS011;11726;50.122;8.832;2022-08-18T09:00:44;13.27;;;10.55;;
23113;SDS011;11726;50.122;8.832;2022-08-18T09:09:21;14.60;;;13.07;;
23113;SDS011;11726;50.122;8.832;2022-08-18T09:12:24;16.83;;;13.18;;
23113;SDS011;11726;50.122;8.832;2022-08-18T09:23:34;22.92;;;16.48;;
23113;SDS011;11726;50.122;8.832;2022-08-18T09:29:16;20.98;;;18.77;;
23113;SDS011;11726;50.122;8.832;2022-08-18T09:37:18;23.80;;;19.98;;
23113;SDS011;11726;50.122;8.832;2022-08-18T09:40:09;23.70;;;21.08;;
23113;SDS011;11726;50.122;8.832;2022-08-18T09:43:30;28.08;;;23.52;;
23113;SDS011;11726;50.122;8.832;2022-08-18T09:48:35;28.55;;;24.40;;
23113;SDS011;11726;50.122;8.832;2022-08-18T09:54:04;27.60;;;24.55;;
23113;SDS011;11726;50.122;8.832;2022-08-18T10:02:04;31.42;;;27.27;;
23113;SDS011;11726;50.122;8.832;2022-08-18T10:04:47;31.77;;;27.15;;
23113;SDS011;11726;50.122;8.832;2022-08-18T10:10:40;30.48;;;27.27;;
23113;SDS011;11726;50.122;8.832;2022-08-18T10:22:05;31.88;;;26.50;;
23113;SDS011;11726;50.122;8.832;2022-08-18T10:24:35;30.77;;;27.48;;
23113;SDS011;11726;50.122;8.832;2022-08-18T10:29:55;26.70;;;23.90;;
23113;SDS011;11726;50.122;8.832;2022-08-18T10:32:33;27.17;;;24.27;;
23113;SDS011;11726;50.122;8.832;2022-08-18T10:35:03;25.40;;;22.90;;
23113;SDS011;11726;50.122;8.832;2022-08-18T10:37:43;24.90;;;22.35;;
23113;SDS011;11726;50.122;8.832;2022-08-18T10:40:33;25.10;;;21.80;;
23113;SDS011;11726;50.122;8.832;2022-08-18T10:43:09;22.63;;;20.25;;
23113;SDS011;11726;50.122;8.832;2022-08-18T10:46:03;22.30;;;20.05;;
23113;SDS011;11726;50.122;8.832;2022-08-18T10:49:01;23.42;;;19.92;;
23113;SDS011;11726;50.122;8.832;2022-08-18T11:00:21;22.33;;;20.15;;
23113;SDS011;11726;50.122;8.832;2022-08-18T11:03:12;23.38;;;19.70;;
23113;SDS011;11726;50.122;8.832;2022-08-18T11:06:08;22.33;;;20.05;;
23113;SDS011;11726;50.122;8.832;2022-08-18T11:08:48;19.33;;;17.40;;
23113;SDS011;11726;50.122;8.832;2022-08-18T11:11:24;20.35;;;18.25;;
23113;SDS011;11726;50.122;8.832;2022-08-18T11:17:15;22.02;;;19.73;;
23113;SDS011;11726;50.122;8.832;2022-08-18T11:19:58;22.92;;;20.63;;
23113;SDS011;11726;50.122;8.832;2022-08-18T11:22:30;22.45;;;20.13;;
23113;SDS011;11726;50.122;8.832;2022-08-18T11:25:01;21.07;;;18.97;;
23113;SDS011;11726;50.122;8.832;2022-08-18T11:27:44;21.58;;;19.13;;
23113;SDS011;11726;50.122;8.832;2022-08-18T11:30:13;23.42;;;21.05;;
23113;SDS011;11726;50.122;8.832;2022-08-18T11:32:42;22.00;;;19.88;;
23113;SDS011;11726;50.122;8.832;2022-08-18T11:35:19;20.25;;;18.08;;
23113;SDS011;11726;50.122;8.832;2022-08-18T11:37:54;20.53;;;18.43;;
23113;SDS011;11726;50.122;8.832;2022-08-18T11:40:32;22.92;;;20.67;;
23113;SDS011;11726;50.122;8.832;2022-08-18T11:43:27;22.15;;;19.90;;
23113;SDS011;11726;50.122;8.832;2022-08-18T11:48:55;26.85;;;23.98;;
23113;SDS011;11726;50.122;8.832;2022-08-18T11:51:27;22.52;;;20.23;;
23113;SDS011;11726;50.122;8.832;2022-08-18T11:54:00;26.52;;;23.80;;
23113;SDS011;11726;50.122;8.832;2022-08-18T11:56:33;24.77;;;21.98;;
23113;SDS011;11726;50.122;8.832;2022-08-18T12:02:14;28.70;;;25.70;;
23113;SDS011;11726;50.122;8.832;2022-08-18T12:04:43;24.75;;;22.35;;
23113;SDS011;11726;50.122;8.832;2022-08-18T12:07:16;26.85;;;24.15;;
23113;SDS011;11726;50.122;8.832;2022-08-18T12:10:15;23.80;;;21.27;;
23113;SDS011;11726;50.122;8.832;2022-08-18T12:13:07;22.65;;;20.23;;
23113;SDS011;11726;50.122;8.832;2022-08-18T12:15:34;24.25;;;21.58;;
23113;SDS011;11726;50.122;8.832;2022-08-18T12:18:12;21.23;;;18.90;;
23113;SDS011;11726;50.122;8.832;2022-08-18T12:20:56;22.42;;;20.10;;
23113;SDS011;11726;50.122;8.832;2022-08-18T12:23:24;22.80;;;19.10;;
23113;SDS011;11726;50.122;8.832;2022-08-18T12:25:51;20.10;;;17.88;;
23113;SDS011;11726;50.122;8.832;2022-08-18T12:28:18;19.92;;;17.95;;
23113;SDS011;11726;50.122;8.832;2022-08-18T12:30:47;22.48;;;20.15;;
23113;SDS011;11726;50.122;8.832;2022-08-18T12:33:22;19.50;;;17.02;;
23113;SDS011;11726;50.122;8.832;2022-08-18T12:36:09;15.25;;;13.75;;
23113;SDS011;11726;50.122;8.832;2022-08-18T12:38:39;14.95;;;13.40;;
23113;SDS011;11726;50.122;8.832;2022-08-18T12:41:08;12.98;;;10.93;;
23113;SDS011;11726;50.122;8.832;2022-08-18T12:43:37;12.90;;;11.60;;
23113;SDS011;11726;50.122;8.832;2022-08-18T12:46:08;13.57;;;12.27;;
23113;SDS011;11726;50.122;8.832;2022-08-18T12:48:37;12.80;;;11.52;;
23113;SDS011;11726;50.122;8.832;2022-08-18T12:51:05;16.52;;;14.90;;
23113;SDS011;11726;50.122;8.832;2022-08-18T12:53:35;15.80;;;14.18;;
23113;SDS011;11726;50.122;8.832;2022-08-18T12:56:28;12.95;;;11.32;;
23113;SDS011;11726;50.122;8.832;2022-08-18T12:58:57;13.75;;;12.43;;
23113;SDS011;11726;50.122;8.832;2022-08-18T13:01:30;14.18;;;12.77;;
23113;SDS011;11726;50.122;8.832;2022-08-18T13:03:58;12.02;;;10.82;;
23113;SDS011;11726;50.122;8.832;2022-08-18T13:06:40;12.95;;;11.20;;
23113;SDS011;11726;50.122;8.832;2022-08-18T13:09:26;14.18;;;12.73;;
23113;SDS011;11726;50.122;8.832;2022-08-18T13:12:13;15.68;;;13.23;;
23113;SDS011;11726;50.122;8.832;2022-08-18T13:14:41;12.63;;;11.40;;
23113;SDS011;11726;50.122;8.832;2022-08-18T13:17:10;8.57;;;7.78;;
23113;SDS011;11726;50.122;8.832;2022-08-18T13:19:57;10.13;;;9.23;;
23113;SDS011;11726;50.122;8.832;2022-08-18T13:22:25;11.85;;;10.75;;
23113;SDS011;11726;50.122;8.832;2022-08-18T13:24:58;8.13;;;7.32;;
23113;SDS011;11726;50.122;8.832;2022-08-18T13:27:30;8.90;;;8.13;;
23113;SDS011;11726;50.122;8.832;2022-08-18T13:30:01;10.75;;;9.70;;
23113;SDS011;11726;50.122;8.832;2022-08-18T13:32:50;10.38;;;9.20;;
23113;SDS011;11726;50.122;8.832;2022-08-18T13:35:24;11.77;;;10.57;;
23113;SDS011;11726;50.122;8.832;2022-08-18T13:37:55;11.75;;;10.65;;
23113;SDS011;11726;50.122;8.832;2022-08-18T13:40:21;10.95;;;9.82;;
23113;SDS011;11726;50.122;8.832;2022-08-18T13:42:54;10.90;;;9.93;;
23113;SDS011;11726;50.122;8.832;2022-08-18T13:45:22;10.60;;;9.60;;
23113;SDS011;11726;50.122;8.832;2022-08-18T13:47:50;11.68;;;10.57;;
23113;SDS011;11726;50.122;8.832;2022-08-18T13:50:19;13.10;;;11.35;;
23113;SDS011;11726;50.122;8.832;2022-08-18T13:52:55;12.68;;;11.40;;
23113;SDS011;11726;50.122;8.832;2022-08-18T13:55:26;11.57;;;10.43;;
23113;SDS011;11726;50.122;8.832;2022-08-18T13:57:54;11.02;;;10.13;;
23113;SDS011;11726;50.122;8.832;2022-08-18T14:00:21;10.73;;;9.82;;
23113;SDS011;11726;50.122;8.832;2022-08-18T14:05:24;12.05;;;10.85;;
23113;SDS011;11726;50.122;8.832;2022-08-18T14:08:10;11.93;;;10.82;;
23113;SDS011;11726;50.122;8.832;2022-08-18T14:10:46;11.75;;;10.65;;
23113;SDS011;11726;50.122;8.832;2022-08-18T14:13:15;11.38;;;10.40;;
23113;SDS011;11726;50.122;8.832;2022-08-18T14:15:50;11.13;;;10.05;;
23113;SDS011;11726;50.122;8.832;2022-08-18T14:18:20;11.40;;;10.20;;
23113;SDS011;11726;50.122;8.832;2022-08-18T14:20:56;10.40;;;9.45;;
23113;SDS011;11726;50.122;8.832;2022-08-18T14:23:41;11.75;;;10.55;;
23113;SDS011;11726;50.122;8.832;2022-08-18T14:26:27;11.65;;;10.45;;
23113;SDS011;11726;50.122;8.832;2022-08-18T14:29:15;11.15;;;9.98;;
23113;SDS011;11726;50.122;8.832;2022-08-18T14:32:03;13.20;;;11.93;;
23113;SDS011;11726;50.122;8.832;2022-08-18T14:34:31;13.65;;;12.25;;
23113;SDS011;11726;50.122;8.832;2022-08-18T14:36:57;12.63;;;11.38;;
23113;SDS011;11726;50.122;8.832;2022-08-18T14:39:24;12.05;;;10.88;;
23113;SDS011;11726;50.122;8.832;2022-08-18T14:41:52;11.48;;;10.38;;
23113;SDS011;11726;50.122;8.832;2022-08-18T14:44:21;9.85;;;8.93;;
23113;SDS011;11726;50.122;8.832;2022-08-18T14:46:57;9.10;;;8.27;;
23113;SDS011;11726;50.122;8.832;2022-08-18T14:49:26;9.15;;;8.30;;
23113;SDS011;11726;50.122;8.832;2022-08-18T14:51:57;11.50;;;9.18;;
23113;SDS011;11726;50.122;8.832;2022-08-18T14:54:25;9.40;;;8.50;;
23113;SDS011;11726;50.122;8.832;2022-08-18T14:56:54;9.63;;;8.73;;
23113;SDS011;11726;50.122;8.832;2022-08-18T14:59:21;8.45;;;7.68;;
23113;SDS011;11726;50.122;8.832;2022-08-18T15:01:50;8.98;;;8.18;;
23113;SDS011;11726;50.122;8.832;2022-08-18T15:04:18;7.50;;;6.80;;
23113;SDS011;11726;50.122;8.832;2022-08-18T15:06:46;8.10;;;6.70;;
23113;SDS011;11726;50.122;8.832;2022-08-18T15:09:22;8.55;;;7.80;;
23113;SDS011;11726;50.122;8.832;2022-08-18T15:11:53;8.95;;;8.15;;
23113;SDS011;11726;50.122;8.832;2022-08-18T15:14:21;9.40;;;8.60;;
23113;SDS011;11726;50.122;8.832;2022-08-18T15:16:58;9.07;;;7.95;;
23113;SDS011;11726;50.122;8.832;2022-08-18T15:19:24;8.32;;;7.45;;
23113;SDS011;11726;50.122;8.832;2022-08-18T15:22:11;11.02;;;8.25;;
23113;SDS011;11726;50.122;8.832;2022-08-18T15:24:57;10.00;;;9.10;;
23113;SDS011;11726;50.122;8.832;2022-08-18T15:27:46;10.18;;;9.02;;
23113;SDS011;11726;50.122;8.832;2022-08-18T15:30:18;11.00;;;9.85;;
23113;SDS011;11726;50.122;8.832;2022-08-18T15:32:46;11.40;;;10.25;;
23113;SDS011;11726;50.122;8.832;2022-08-18T15:35:15;10.95;;;9.98;;
23113;SDS011;11726;50.122;8.832;2022-08-18T15:37:45;10.90;;;8.85;;
23113;SDS011;11726;50.122;8.832;2022-08-18T15:40:24;12.10;;;8.57;;
23113;SDS011;11726;50.122;8.832;2022-08-18T15:43:01;9.20;;;8.30;;
23113;SDS011;11726;50.122;8.832;2022-08-18T15:45:38;9.25;;;8.43;;
23113;SDS011;11726;50.122;8.832;2022-08-18T15:48:23;9.63;;;8.65;;
23113;SDS011;11726;50.122;8.832;2022-08-18T15:50:51;10.20;;;9.13;;
23113;SDS011;11726;50.122;8.832;2022-08-18T15:53:20;9.27;;;8.38;;
23113;SDS011;11726;50.122;8.832;2022-08-18T15:55:55;10.02;;;9.07;;
23113;SDS011;11726;50.122;8.832;2022-08-18T15:58:22;10.73;;;9.68;;
23113;SDS011;11726;50.122;8.832;2022-08-18T16:00:53;10.48;;;9.27;;
23113;SDS011;11726;50.122;8.832;2022-08-18T16:03:20;11.77;;;10.40;;
23113;SDS011;11726;50.122;8.832;2022-08-18T16:05:51;12.82;;;11.57;;
23113;SDS011;11726;50.122;8.832;2022-08-18T16:08:23;12.07;;;10.98;;
23113;SDS011;11726;50.122;8.832;2022-08-18T16:10:51;11.15;;;10.05;;
23113;SDS011;11726;50.122;8.832;2022-08-18T16:13:18;12.52;;;11.32;;
23113;SDS011;11726;50.122;8.832;2022-08-18T16:15:45;12.20;;;11.02;;
23113;SDS011;11726;50.122;8.832;2022-08-18T16:18:15;13.27;;;11.82;;
23113;SDS011;11726;50.122;8.832;2022-08-18T16:20:43;11.93;;;10.93;;
23113;SDS011;11726;50.122;8.832;2022-08-18T16:23:10;12.98;;;11.75;;
23113;SDS011;11726;50.122;8.832;2022-08-18T16:25:38;12.38;;;11.20;;
23113;SDS011;11726;50.122;8.832;2022-08-18T16:28:06;12.55;;;11.35;;
23113;SDS011;11726;50.122;8.832;2022-08-18T16:30:33;11.40;;;10.30;;
23113;SDS011;11726;50.122;8.832;2022-08-18T16:33:02;11.23;;;10.13;;
23113;SDS011;11726;50.122;8.832;2022-08-18T16:35:30;11.20;;;10.18;;
23113;SDS011;11726;50.122;8.832;2022-08-18T16:38:07;11.45;;;10.35;;
23113;SDS011;11726;50.122;8.832;2022-08-18T16:40:35;11.80;;;10.70;;
23113;SDS011;11726;50.122;8.832;2022-08-18T16:43:02;12.43;;;11.27;;
23113;SDS011;11726;50.122;8.832;2022-08-18T16:45:30;12.00;;;10.85;;
23113;SDS011;11726;50.122;8.832;2022-08-18T16:47:58;11.27;;;10.27;;
23113;SDS011;11726;50.122;8.832;2022-08-18T16:50:25;11.40;;;10.40;;
23113;SDS011;11726;50.122;8.832;2022-08-18T16:52:53;12.20;;;11.00;;
23113;SDS011;11726;50.122;8.832;2022-08-18T16:55:20;11.82;;;10.35;;
23113;SDS011;11726;50.122;8.832;2022-08-18T16:57:46;11.68;;;10.57;;
23113;SDS011;11726;50.122;8.832;2022-08-18T17:00:32;11.77;;;10.65;;
23113;SDS011;11726;50.122;8.832;2022-08-18T17:03:20;12.38;;;11.18;;
23113;SDS011;11726;50.122;8.832;2022-08-18T17:06:07;12.25;;;11.02;;
23113;SDS011;11726;50.122;8.832;2022-08-18T17:08:39;13.38;;;11.85;;
23113;SDS011;11726;50.122;8.832;2022-08-18T17:11:08;12.65;;;11.32;;
23113;SDS011;11726;50.122;8.832;2022-08-18T17:13:39;13.73;;;12.45;;
23113;SDS011;11726;50.122;8.832;2022-08-18T17:16:07;12.88;;;11.75;;
23113;SDS011;11726;50.122;8.832;2022-08-18T17:18:35;15.43;;;12.35;;